createdAt,value
2022-11-15T00:00:33.923Z,0.00
2022-11-15T00:01:34.084Z,0.00
2022-11-15T00:02:34.106Z,0.00
2022-11-15T00:03:34.427Z,0.00
2022-11-15T00:04:34.287Z,0.00
2022-11-15T00:05:34.329Z,0.00
2022-11-15T00:06:34.436Z,0.00
2022-11-15T00:07:54.586Z,0.00
2022-11-15T00:08:34.620Z,0.00
2022-11-15T00:09:34.709Z,0.00
2022-11-15T00:10:34.781Z,0.00
2022-11-15T00:11:34.871Z,0.00
2022-11-15T00:12:34.936Z,0.00
2022-11-15T00:13:35.308Z,0.00
2022-11-15T00:14:35.120Z,0.00
2022-11-15T00:15:35.157Z,0.00
2022-11-15T00:16:35.265Z,0.00
2022-11-15T00:17:35.329Z,0.00
2022-11-15T00:18:35.418Z,0.00
2022-11-15T00:19:35.514Z,0.00
2022-11-15T00:20:35.586Z,0.00
2022-11-15T00:21:35.665Z,0.00
2022-11-15T00:22:35.765Z,0.00
2022-11-15T00:23:35.848Z,0.00
2022-11-15T00:24:35.956Z,0.00
2022-11-15T00:25:36.171Z,0.00
2022-11-15T00:26:36.099Z,0.00
2022-11-15T00:27:36.178Z,0.00
2022-11-15T00:28:36.277Z,0.00
2022-11-15T00:29:36.401Z,0.00
2022-11-15T00:30:36.428Z,0.00
2022-11-15T00:31:36.505Z,0.00
2022-11-15T00:32:36.633Z,0.00
2022-11-15T00:33:36.872Z,0.00
2022-11-15T00:34:36.815Z,0.00
2022-11-15T00:35:36.854Z,0.00
2022-11-15T00:36:36.961Z,0.00
2022-11-15T00:37:37.039Z,0.00
2022-11-15T00:38:37.151Z,0.00
2022-11-15T00:39:37.239Z,0.00
2022-11-15T00:40:37.309Z,0.00
2022-11-15T00:41:37.386Z,0.00
2022-11-15T00:42:37.491Z,0.00
2022-11-15T00:43:37.571Z,0.00
2022-11-15T00:44:37.680Z,0.00
2022-11-15T00:45:37.718Z,0.00
2022-11-15T00:46:37.824Z,0.00
2022-11-15T00:47:37.907Z,0.00
2022-11-15T00:48:37.975Z,0.00
2022-11-15T00:49:38.068Z,0.00
2022-11-15T00:50:38.141Z,0.00
2022-11-15T00:51:38.218Z,0.00
2022-11-15T00:52:38.326Z,0.00
2022-11-15T00:53:38.414Z,0.00
2022-11-15T00:54:38.530Z,0.00
2022-11-15T00:55:38.580Z,0.00
2022-11-15T00:56:38.657Z,0.00
2022-11-15T00:57:38.766Z,0.00
2022-11-15T00:58:38.847Z,0.00
2022-11-15T00:59:38.926Z,0.00
2022-11-15T01:00:39.013Z,0.00
2022-11-15T01:01:39.107Z,0.00
2022-11-15T01:02:39.196Z,0.00
2022-11-15T01:03:39.300Z,0.00
2022-11-15T01:04:39.392Z,0.00
2022-11-15T01:05:39.466Z,0.00
2022-11-15T01:06:39.543Z,0.00
2022-11-15T01:07:39.652Z,0.00
2022-11-15T01:08:39.726Z,0.00
2022-11-15T01:09:39.849Z,0.00
2022-11-15T01:10:39.889Z,0.00
2022-11-15T01:11:39.997Z,0.00
2022-11-15T01:12:40.076Z,0.00
2022-11-15T01:13:40.188Z,0.00
2022-11-15T01:14:40.276Z,0.00
2022-11-15T01:15:40.346Z,0.00
2022-11-15T01:16:40.423Z,0.00
2022-11-15T01:17:40.517Z,0.00
2022-11-15T01:18:40.596Z,0.00
2022-11-15T01:19:40.707Z,0.00
2022-11-15T01:20:40.774Z,0.00
2022-11-15T01:21:40.840Z,0.00
2022-11-15T01:22:40.921Z,0.00
2022-11-15T01:23:40.990Z,0.00
2022-11-15T01:24:41.084Z,0.00
2022-11-15T01:25:41.163Z,0.00
2022-11-15T01:26:41.232Z,0.00
2022-11-15T01:27:41.325Z,0.00
2022-11-15T01:28:41.408Z,0.00
2022-11-15T01:29:41.509Z,0.00
2022-11-15T01:30:41.577Z,0.00
2022-11-15T01:31:41.669Z,0.00
2022-11-15T01:32:41.745Z,0.00
2022-11-15T01:33:41.817Z,0.00
2022-11-15T01:34:41.904Z,0.00
2022-11-15T01:35:41.982Z,0.00
2022-11-15T01:36:42.059Z,0.00
2022-11-15T01:37:42.128Z,0.00
2022-11-15T01:38:42.211Z,0.00
2022-11-15T01:39:42.340Z,0.00
2022-11-15T01:40:42.386Z,0.00
2022-11-15T01:41:42.468Z,0.00
2022-11-15T01:42:42.546Z,0.00
2022-11-15T01:43:42.653Z,0.00
2022-11-15T01:44:42.741Z,0.00
2022-11-15T01:45:42.840Z,0.00
2022-11-15T01:46:42.925Z,0.00
2022-11-15T01:47:42.990Z,0.00
2022-11-15T01:48:43.071Z,0.00
2022-11-15T01:49:43.178Z,0.00
2022-11-15T01:50:43.215Z,0.00
2022-11-15T01:51:43.305Z,0.00
2022-11-15T01:52:43.386Z,0.00
2022-11-15T01:53:43.472Z,0.00
2022-11-15T01:54:43.575Z,0.00
2022-11-15T01:55:43.622Z,0.00
2022-11-15T01:56:43.704Z,0.00
2022-11-15T01:57:43.777Z,0.00
2022-11-15T01:58:43.854Z,0.00
2022-11-15T01:59:43.941Z,0.00
2022-11-15T02:00:44.040Z,0.00
2022-11-15T02:01:44.081Z,0.00
2022-11-15T02:02:44.154Z,0.00
2022-11-15T02:03:44.223Z,0.00
2022-11-15T02:04:44.315Z,0.00
2022-11-15T02:05:44.390Z,0.00
2022-11-15T02:06:44.636Z,0.00
2022-11-15T02:07:44.534Z,0.00
2022-11-15T02:08:44.612Z,0.00
2022-11-15T02:09:44.734Z,0.00
2022-11-15T02:10:44.772Z,0.00
2022-11-15T02:11:44.880Z,0.00
2022-11-15T02:12:44.966Z,0.00
2022-11-15T02:13:45.056Z,0.00
2022-11-15T02:14:45.143Z,0.00
2022-11-15T02:15:45.220Z,0.00
2022-11-15T02:16:45.297Z,0.00
2022-11-15T02:17:45.390Z,0.00
2022-11-15T02:18:45.467Z,0.00
2022-11-15T02:19:45.589Z,0.00
2022-11-15T02:20:45.628Z,0.00
2022-11-15T02:21:45.740Z,0.00
2022-11-15T02:22:45.817Z,0.00
2022-11-15T02:23:45.914Z,0.00
2022-11-15T02:24:46.011Z,0.00
2022-11-15T02:25:46.083Z,0.00
2022-11-15T02:26:46.169Z,0.00
2022-11-15T02:27:46.273Z,0.00
2022-11-15T02:28:46.326Z,0.00
2022-11-15T02:29:46.409Z,0.00
2022-11-15T02:30:46.449Z,0.00
2022-11-15T02:31:46.521Z,0.00
2022-11-15T02:32:46.596Z,0.00
2022-11-15T02:33:46.702Z,0.00
2022-11-15T02:34:46.797Z,0.00
2022-11-15T02:35:46.882Z,0.00
2022-11-15T02:36:46.962Z,0.00
2022-11-15T02:37:47.024Z,0.00
2022-11-15T02:38:47.088Z,0.00
2022-11-15T02:39:47.200Z,0.00
2022-11-15T02:40:47.263Z,0.00
2022-11-15T02:41:47.344Z,0.00
2022-11-15T02:42:47.418Z,0.00
2022-11-15T02:43:47.522Z,0.00
2022-11-15T02:44:47.619Z,0.00
2022-11-15T02:45:47.701Z,0.00
2022-11-15T02:46:47.787Z,0.00
2022-11-15T02:47:47.889Z,0.00
2022-11-15T02:48:47.930Z,0.00
2022-11-15T02:49:48.020Z,0.00
2022-11-15T02:50:48.057Z,0.00
2022-11-15T02:51:48.130Z,0.00
2022-11-15T02:52:48.203Z,0.00
2022-11-15T02:53:48.294Z,0.00
2022-11-15T02:54:48.401Z,0.00
2022-11-15T02:55:48.468Z,0.00
2022-11-15T02:56:48.544Z,0.00
2022-11-15T02:57:48.648Z,0.00
2022-11-15T02:58:48.735Z,0.00
2022-11-15T02:59:48.817Z,0.00
2022-11-15T03:00:48.899Z,0.00
2022-11-15T03:01:49.002Z,0.00
2022-11-15T03:02:49.078Z,0.00
2022-11-15T03:03:49.183Z,0.00
2022-11-15T03:04:49.275Z,0.00
2022-11-15T03:05:49.360Z,0.00
2022-11-15T03:06:49.472Z,0.00
2022-11-15T03:07:49.522Z,0.00
2022-11-15T03:08:49.592Z,0.00
2022-11-15T03:09:49.701Z,0.00
2022-11-15T03:10:49.748Z,0.00
2022-11-15T03:11:49.818Z,0.00
2022-11-15T03:12:49.918Z,0.00
2022-11-15T03:13:49.986Z,0.00
2022-11-15T03:14:50.075Z,0.00
2022-11-15T03:15:50.154Z,0.00
2022-11-15T03:16:50.224Z,0.00
2022-11-15T03:17:50.332Z,0.00
2022-11-15T03:18:50.409Z,0.00
2022-11-15T03:19:50.533Z,0.00
2022-11-15T03:20:50.570Z,0.00
2022-11-15T03:21:50.675Z,0.00
2022-11-15T03:22:50.757Z,0.00
2022-11-15T03:23:50.852Z,0.00
2022-11-15T03:24:50.942Z,0.00
2022-11-15T03:25:51.024Z,0.00
2022-11-15T03:26:51.103Z,0.00
2022-11-15T03:27:51.211Z,0.00
2022-11-15T03:28:51.293Z,0.00
2022-11-15T03:29:51.379Z,0.00
2022-11-15T03:30:51.419Z,0.00
2022-11-15T03:31:51.804Z,0.00
2022-11-15T03:32:51.576Z,0.00
2022-11-15T03:33:51.681Z,0.00
2022-11-15T03:34:51.772Z,0.00
2022-11-15T03:35:51.849Z,0.00
2022-11-15T03:36:51.928Z,0.00
2022-11-15T03:37:52.057Z,0.00
2022-11-15T03:38:52.081Z,0.00
2022-11-15T03:39:52.169Z,0.00
2022-11-15T03:40:52.209Z,0.00
2022-11-15T03:41:52.382Z,0.00
2022-11-15T03:42:52.389Z,0.00
2022-11-15T03:43:52.460Z,0.00
2022-11-15T03:44:52.557Z,0.00
2022-11-15T03:45:52.646Z,0.00
2022-11-15T03:46:52.718Z,0.00
2022-11-15T03:47:52.827Z,0.00
2022-11-15T03:48:52.898Z,0.00
2022-11-15T03:49:53.022Z,0.00
2022-11-15T03:50:53.086Z,0.00
2022-11-15T03:51:53.190Z,0.00
2022-11-15T03:52:53.264Z,0.00
2022-11-15T03:53:53.372Z,0.00
2022-11-15T03:54:53.839Z,0.00
2022-11-15T03:55:53.527Z,0.00
2022-11-15T03:56:53.608Z,0.00
2022-11-15T03:57:53.689Z,0.00
2022-11-15T03:58:53.766Z,0.00
2022-11-15T03:59:53.888Z,0.00
2022-11-15T04:00:53.968Z,0.00
2022-11-15T04:01:54.025Z,0.00
2022-11-15T04:02:54.092Z,0.00
2022-11-15T04:03:54.164Z,0.00
2022-11-15T04:04:54.255Z,0.00
2022-11-15T04:05:54.330Z,0.00
2022-11-15T04:06:54.454Z,0.00
2022-11-15T04:07:54.500Z,0.00
2022-11-15T04:08:54.585Z,0.00
2022-11-15T04:09:54.668Z,0.00
2022-11-15T04:10:54.796Z,0.00
2022-11-15T04:11:54.782Z,0.00
2022-11-15T04:12:54.867Z,0.00
2022-11-15T04:13:54.940Z,0.00
2022-11-15T04:14:55.030Z,0.00
2022-11-15T04:15:55.117Z,0.00
2022-11-15T04:16:55.195Z,0.00
2022-11-15T04:17:55.308Z,0.00
2022-11-15T04:18:55.380Z,0.00
2022-11-15T04:19:55.498Z,0.00
2022-11-15T04:20:55.538Z,0.00
2022-11-15T04:21:55.648Z,0.00
2022-11-15T04:22:55.718Z,0.00
2022-11-15T04:23:55.816Z,0.00
2022-11-15T04:24:55.920Z,0.00
2022-11-15T04:25:56.015Z,0.00
2022-11-15T04:26:56.083Z,0.00
2022-11-15T04:27:56.191Z,0.00
2022-11-15T04:28:56.260Z,0.00
2022-11-15T04:29:56.376Z,0.00
2022-11-15T04:30:56.412Z,0.00
2022-11-15T04:31:56.517Z,0.00
2022-11-15T04:32:56.605Z,0.00
2022-11-15T04:33:56.670Z,0.00
2022-11-15T04:34:56.764Z,0.00
2022-11-15T04:35:56.837Z,0.00
2022-11-15T04:36:56.917Z,0.00
2022-11-15T04:37:57.027Z,0.00
2022-11-15T04:38:57.103Z,0.00
2022-11-15T04:39:57.226Z,0.00
2022-11-15T04:40:57.277Z,0.00
2022-11-15T04:41:57.381Z,0.00
2022-11-15T04:43:03.353Z,0.00
2022-11-15T04:43:57.563Z,0.00
2022-11-15T04:44:57.651Z,0.00
2022-11-15T04:45:57.723Z,0.00
2022-11-15T04:46:57.803Z,0.00
2022-11-15T04:47:57.892Z,0.00
2022-11-15T04:48:59.260Z,0.00
2022-11-15T04:49:58.088Z,0.00
2022-11-15T04:50:58.128Z,0.00
2022-11-15T04:51:58.232Z,0.00
2022-11-15T04:52:58.308Z,0.00
2022-11-15T04:53:58.413Z,0.00
2022-11-15T04:55:01.362Z,0.00
2022-11-15T04:55:58.577Z,0.00
2022-11-15T04:56:58.645Z,0.00
2022-11-15T04:57:58.742Z,0.00
2022-11-15T04:58:58.789Z,0.00
2022-11-15T04:59:58.915Z,0.00
2022-11-15T05:00:59.017Z,0.00
2022-11-15T05:01:59.035Z,0.00
2022-11-15T05:02:59.113Z,0.00
2022-11-15T05:03:59.220Z,0.00
2022-11-15T05:04:59.323Z,0.00
2022-11-15T05:05:59.391Z,0.00
2022-11-15T05:06:59.530Z,0.00
2022-11-15T05:07:59.585Z,0.00
2022-11-15T05:08:59.673Z,0.00
2022-11-15T05:09:59.783Z,0.00
2022-11-15T05:10:59.850Z,0.00
2022-11-15T05:11:59.933Z,0.00
2022-11-15T05:13:00.004Z,0.00
2022-11-15T05:14:00.085Z,0.00
2022-11-15T05:15:00.200Z,0.00
2022-11-15T05:16:00.243Z,0.00
2022-11-15T05:17:00.313Z,0.00
2022-11-15T05:18:00.400Z,0.00
2022-11-15T05:19:00.496Z,0.00
2022-11-15T05:20:00.592Z,0.00
2022-11-15T05:21:00.662Z,0.00
2022-11-15T05:22:00.747Z,0.00
2022-11-15T05:23:00.815Z,0.00
2022-11-15T05:24:00.887Z,0.00
2022-11-15T05:25:01.014Z,0.00
2022-11-15T05:26:05.062Z,0.00
2022-11-15T05:27:01.146Z,0.00
2022-11-15T05:28:01.220Z,0.00
2022-11-15T05:29:01.321Z,0.00
2022-11-15T05:30:01.420Z,0.00
2022-11-15T05:31:01.504Z,0.00
2022-11-15T05:32:01.578Z,0.00
2022-11-15T05:33:01.682Z,0.00
2022-11-15T05:34:01.748Z,0.00
2022-11-15T05:35:01.873Z,0.00
2022-11-15T05:36:01.913Z,0.00
2022-11-15T05:37:01.989Z,0.00
2022-11-15T05:38:02.065Z,0.00
2022-11-15T05:39:02.172Z,0.00
2022-11-15T05:40:02.261Z,0.00
2022-11-15T05:41:02.338Z,0.00
2022-11-15T05:42:02.421Z,0.00
2022-11-15T05:43:02.509Z,0.00
2022-11-15T05:44:02.588Z,0.00
2022-11-15T05:45:02.698Z,0.00
2022-11-15T05:46:02.738Z,0.00
2022-11-15T05:47:02.825Z,0.00
2022-11-15T05:48:02.910Z,0.00
2022-11-15T05:49:03.031Z,0.00
2022-11-15T05:50:03.095Z,0.00
2022-11-15T05:51:03.171Z,0.00
2022-11-15T05:52:03.249Z,0.00
2022-11-15T05:53:05.267Z,0.00
2022-11-15T05:54:03.414Z,0.00
2022-11-15T05:55:03.522Z,0.00
2022-11-15T05:56:03.581Z,0.00
2022-11-15T05:57:03.677Z,0.00
2022-11-15T05:58:03.771Z,0.00
2022-11-15T05:59:03.831Z,0.00
2022-11-15T06:00:03.927Z,0.00
2022-11-15T06:01:03.998Z,0.00
2022-11-15T06:02:04.191Z,0.00
2022-11-15T06:03:04.181Z,0.00
2022-11-15T06:04:04.259Z,0.00
2022-11-15T06:05:04.365Z,0.00
2022-11-15T06:06:04.401Z,0.00
2022-11-15T06:07:04.525Z,0.00
2022-11-15T06:08:04.530Z,0.00
2022-11-15T06:09:04.617Z,4.00
2022-11-15T06:10:04.749Z,0.00
2022-11-15T06:11:04.786Z,0.00
2022-11-15T06:12:04.872Z,4.00
2022-11-15T06:13:04.963Z,4.00
2022-11-15T06:14:05.043Z,4.00
2022-11-15T06:15:05.163Z,4.00
2022-11-15T06:16:05.208Z,4.00
2022-11-15T06:17:11.039Z,4.00
2022-11-15T06:18:05.364Z,8.00
2022-11-15T06:19:05.461Z,12.00
2022-11-15T06:20:05.547Z,12.00
2022-11-15T06:21:05.624Z,16.00
2022-11-15T06:22:05.708Z,16.00
2022-11-15T06:23:05.772Z,20.00
2022-11-15T06:24:05.856Z,24.00
2022-11-15T06:25:06.053Z,32.00
2022-11-15T06:26:06.017Z,32.00
2022-11-15T06:27:06.101Z,40.00
2022-11-15T06:28:06.175Z,48.00
2022-11-15T06:29:06.289Z,56.00
2022-11-15T06:30:06.378Z,64.00
2022-11-15T06:31:06.445Z,76.00
2022-11-15T06:32:06.534Z,88.00
2022-11-15T06:33:06.609Z,100.00
2022-11-15T06:34:06.682Z,116.00
2022-11-15T06:35:06.811Z,132.00
2022-11-15T06:36:06.842Z,152.00
2022-11-15T06:37:06.928Z,168.00
2022-11-15T06:38:07.012Z,196.00
2022-11-15T06:39:07.120Z,216.00
2022-11-15T06:40:07.214Z,244.00
2022-11-15T06:41:07.302Z,268.00
2022-11-15T06:42:07.379Z,292.00
2022-11-15T06:43:07.481Z,316.00
2022-11-15T06:44:07.562Z,340.00
2022-11-15T06:45:07.651Z,368.00
2022-11-15T06:46:07.692Z,392.00
2022-11-15T06:47:07.762Z,424.00
2022-11-15T06:48:07.842Z,456.00
2022-11-15T06:49:09.710Z,488.00
2022-11-15T06:50:08.016Z,516.00
2022-11-15T06:51:08.101Z,548.00
2022-11-15T06:52:08.154Z,580.00
2022-11-15T06:53:08.241Z,616.00
2022-11-15T06:54:08.321Z,660.00
2022-11-15T06:55:08.674Z,700.00
2022-11-15T06:56:08.504Z,752.00
2022-11-15T06:57:08.598Z,804.00
2022-11-15T06:58:08.680Z,860.00
2022-11-15T06:59:08.786Z,916.00
2022-11-15T07:00:08.886Z,972.00
2022-11-15T07:01:08.966Z,1028.00
2022-11-15T07:02:09.050Z,1080.00
2022-11-15T07:03:09.119Z,1132.00
2022-11-15T07:04:09.192Z,1184.00
2022-11-15T07:05:09.316Z,1236.00
2022-11-15T07:06:09.362Z,1300.00
2022-11-15T07:07:09.468Z,1364.00
2022-11-15T07:08:09.513Z,1436.00
2022-11-15T07:09:09.617Z,1512.00
2022-11-15T07:10:09.710Z,1592.00
2022-11-15T07:11:09.784Z,1672.00
2022-11-15T07:12:09.859Z,1760.00
2022-11-15T07:13:09.972Z,1848.00
2022-11-15T07:14:10.047Z,1940.00
2022-11-15T07:15:10.175Z,2032.00
2022-11-15T07:16:10.216Z,2124.00
2022-11-15T07:17:10.291Z,2220.00
2022-11-15T07:18:10.361Z,2324.00
2022-11-15T07:19:10.448Z,2432.00
2022-11-15T07:20:10.538Z,2540.00
2022-11-15T07:21:10.614Z,2652.00
2022-11-15T07:22:10.715Z,2764.00
2022-11-15T07:23:10.763Z,2880.00
2022-11-15T07:24:10.841Z,3000.00
2022-11-15T07:25:10.955Z,3116.00
2022-11-15T07:26:10.993Z,3232.00
2022-11-15T07:27:11.074Z,3352.00
2022-11-15T07:28:11.153Z,3464.00
2022-11-15T07:29:11.236Z,3580.00
2022-11-15T07:30:11.323Z,3692.00
2022-11-15T07:31:11.389Z,3804.00
2022-11-15T07:32:11.490Z,3916.00
2022-11-15T07:33:11.561Z,4036.00
2022-11-15T07:34:11.637Z,4148.00
2022-11-15T07:35:11.723Z,4268.00
2022-11-15T07:36:11.790Z,4380.00
2022-11-15T07:37:11.877Z,4496.00
2022-11-15T07:38:11.966Z,4652.00
2022-11-15T07:39:12.051Z,4756.00
2022-11-15T07:40:12.146Z,4952.00
2022-11-15T07:41:12.224Z,5036.00
2022-11-15T07:42:12.285Z,5076.00
2022-11-15T07:43:12.361Z,5120.00
2022-11-15T07:44:12.440Z,5132.00
2022-11-15T07:45:12.553Z,5196.00
2022-11-15T07:46:12.605Z,5272.00
2022-11-15T07:47:12.682Z,5396.00
2022-11-15T07:48:12.763Z,5692.00
2022-11-15T07:49:12.847Z,5896.00
2022-11-15T07:50:12.938Z,5744.00
2022-11-15T07:51:14.294Z,5828.00
2022-11-15T07:52:13.083Z,5856.00
2022-11-15T07:53:13.169Z,5844.00
2022-11-15T07:54:13.232Z,5884.00
2022-11-15T07:55:13.329Z,5888.00
2022-11-15T07:56:13.375Z,6004.00
2022-11-15T07:57:13.439Z,6000.00
2022-11-15T07:58:13.518Z,6112.00
2022-11-15T07:59:13.588Z,6320.00
2022-11-15T08:00:13.670Z,6364.00
2022-11-15T08:01:13.892Z,6320.00
2022-11-15T08:02:13.924Z,6332.00
2022-11-15T08:03:13.862Z,6432.00
2022-11-15T08:04:13.939Z,6456.00
2022-11-15T08:05:14.045Z,6468.00
2022-11-15T08:06:14.085Z,6500.00
2022-11-15T08:07:14.261Z,6544.00
2022-11-15T08:08:14.250Z,6664.00
2022-11-15T08:09:14.322Z,6640.00
2022-11-15T08:10:14.412Z,6648.00
2022-11-15T08:11:14.501Z,6668.00
2022-11-15T08:12:14.579Z,6724.00
2022-11-15T08:13:14.703Z,6780.00
2022-11-15T08:14:14.710Z,6836.00
2022-11-15T08:15:14.802Z,6888.00
2022-11-15T08:16:14.865Z,6976.00
2022-11-15T08:17:14.914Z,7072.00
2022-11-15T08:18:14.990Z,7164.00
2022-11-15T08:19:15.063Z,7256.00
2022-11-15T08:20:15.159Z,7368.00
2022-11-15T08:21:18.247Z,7444.00
2022-11-15T08:22:15.281Z,7580.00
2022-11-15T08:23:15.370Z,7744.00
2022-11-15T08:24:15.443Z,7828.00
2022-11-15T08:25:15.546Z,7884.00
2022-11-15T08:26:15.596Z,7876.00
2022-11-15T08:27:15.962Z,8028.00
2022-11-15T08:28:15.743Z,8208.00
2022-11-15T08:29:15.826Z,8844.00
2022-11-15T08:30:15.922Z,10608.00
2022-11-15T08:31:16.004Z,11852.00
2022-11-15T08:32:16.082Z,11324.00
2022-11-15T08:33:16.169Z,11816.00
2022-11-15T08:34:16.247Z,12948.00
2022-11-15T08:35:16.353Z,13136.00
2022-11-15T08:36:16.386Z,14196.00
2022-11-15T08:37:16.500Z,14148.00
2022-11-15T08:38:16.572Z,15456.00
2022-11-15T08:39:16.674Z,16512.00
2022-11-15T08:40:16.777Z,16672.00
2022-11-15T08:41:16.826Z,18368.00
2022-11-15T08:42:19.746Z,21312.00
2022-11-15T08:43:17.006Z,18688.00
2022-11-15T08:44:17.076Z,17280.00
2022-11-15T08:45:22.348Z,20896.00
2022-11-15T08:46:17.226Z,24000.00
2022-11-15T08:47:17.328Z,25024.00
2022-11-15T08:48:17.402Z,26816.00
2022-11-15T08:49:17.490Z,25440.00
2022-11-15T08:50:17.562Z,24096.00
2022-11-15T08:51:17.691Z,23680.00
2022-11-15T08:52:17.727Z,23168.00
2022-11-15T08:53:17.847Z,21440.00
2022-11-15T08:54:17.913Z,19328.00
2022-11-15T08:55:18.065Z,18784.00
2022-11-15T08:56:18.091Z,17792.00
2022-11-15T08:57:18.164Z,16992.00
2022-11-15T08:58:18.239Z,16352.00
2022-11-15T08:59:18.317Z,15552.00
2022-11-15T09:00:18.394Z,15776.00
2022-11-15T09:01:18.920Z,16352.00
2022-11-15T09:02:18.565Z,16800.00
2022-11-15T09:03:18.668Z,16288.00
2022-11-15T09:04:18.738Z,15744.00
2022-11-15T09:05:18.837Z,14784.00
2022-11-15T09:06:18.926Z,16480.00
2022-11-15T09:07:19.124Z,18368.00
2022-11-15T09:08:46.185Z,20576.00
2022-11-15T09:09:19.158Z,21920.00
2022-11-15T09:10:19.227Z,21600.00
2022-11-15T09:11:19.345Z,21600.00
2022-11-15T09:12:19.378Z,22368.00
2022-11-15T09:13:19.480Z,22432.00
2022-11-15T09:14:19.549Z,21344.00
2022-11-15T09:15:19.626Z,20928.00
2022-11-15T09:16:19.717Z,19616.00
2022-11-15T09:17:24.444Z,18080.00
2022-11-15T09:18:22.217Z,17504.00
2022-11-15T09:19:20.025Z,19264.00
2022-11-15T09:20:20.070Z,20736.00
2022-11-15T09:21:20.184Z,19200.00
2022-11-15T09:22:20.252Z,18848.00
2022-11-15T09:23:20.352Z,16064.00
2022-11-15T09:24:20.421Z,14076.00
2022-11-15T09:25:20.518Z,12812.00
2022-11-15T09:26:20.617Z,12064.00
2022-11-15T09:27:20.663Z,12300.00
2022-11-15T09:28:20.767Z,12036.00
2022-11-15T09:29:20.833Z,12412.00
2022-11-15T09:30:20.927Z,12512.00
2022-11-15T09:31:22.233Z,12760.00
2022-11-15T09:32:21.099Z,13044.00
2022-11-15T09:33:21.170Z,13580.00
2022-11-15T09:34:21.261Z,14304.00
2022-11-15T09:35:21.333Z,14752.00
2022-11-15T09:36:21.459Z,14468.00
2022-11-15T09:37:21.508Z,14488.00
2022-11-15T09:38:21.598Z,13736.00
2022-11-15T09:39:21.670Z,13768.00
2022-11-15T09:40:21.770Z,14304.00
2022-11-15T09:41:21.852Z,14400.00
2022-11-15T09:42:21.924Z,13988.00
2022-11-15T09:43:21.996Z,12732.00
2022-11-15T09:44:25.538Z,12680.00
2022-11-15T09:45:22.169Z,13136.00
2022-11-15T09:46:22.249Z,13764.00
2022-11-15T09:47:22.284Z,17088.00
2022-11-15T09:48:22.368Z,19520.00
2022-11-15T09:49:22.443Z,21152.00
2022-11-15T09:50:22.522Z,20928.00
2022-11-15T09:51:22.616Z,18688.00
2022-11-15T09:52:22.688Z,20768.00
2022-11-15T09:53:50.828Z,22848.00
2022-11-15T09:54:52.950Z,23040.00
2022-11-15T09:55:22.916Z,19424.00
2022-11-15T09:56:23.038Z,19584.00
2022-11-15T09:57:23.079Z,17120.00
2022-11-15T09:58:23.177Z,16608.00
2022-11-15T09:59:23.255Z,18400.00
2022-11-15T10:00:45.390Z,19136.00
2022-11-15T10:01:23.525Z,16544.00
2022-11-15T10:02:23.516Z,15616.00
2022-11-15T10:03:23.588Z,16192.00
2022-11-15T10:04:23.689Z,16672.00
2022-11-15T10:05:23.764Z,17696.00
2022-11-15T10:06:23.875Z,17440.00
2022-11-15T10:07:23.967Z,16128.00
2022-11-15T10:08:24.036Z,15488.00
2022-11-15T10:09:24.164Z,14588.00
2022-11-15T10:10:24.204Z,14860.00
2022-11-15T10:11:40.059Z,16896.00
2022-11-15T10:12:24.362Z,16800.00
2022-11-15T10:13:24.434Z,15808.00
2022-11-15T10:14:24.533Z,15616.00
2022-11-15T10:15:24.606Z,15776.00
2022-11-15T10:16:24.717Z,15904.00
2022-11-15T10:17:24.794Z,15808.00
2022-11-15T10:18:24.894Z,12672.00
2022-11-15T10:19:24.971Z,10448.00
2022-11-15T10:20:25.057Z,8832.00
2022-11-15T10:21:25.159Z,8020.00
2022-11-15T10:22:25.223Z,7736.00
2022-11-15T10:23:25.300Z,7716.00
2022-11-15T10:24:25.527Z,7632.00
2022-11-15T10:25:25.477Z,7648.00
2022-11-15T10:26:25.569Z,7620.00
2022-11-15T10:27:25.608Z,7596.00
2022-11-15T10:28:25.703Z,7608.00
2022-11-15T10:29:27.190Z,7376.00
2022-11-15T10:30:25.893Z,7412.00
2022-11-15T10:31:25.993Z,7412.00
2022-11-15T10:32:26.065Z,7364.00
2022-11-15T10:33:26.152Z,7228.00
2022-11-15T10:34:26.232Z,7096.00
2022-11-15T10:35:26.287Z,7016.00
2022-11-15T10:36:26.391Z,6876.00
2022-11-15T10:37:26.425Z,6800.00
2022-11-15T10:38:26.507Z,6716.00
2022-11-15T10:39:26.584Z,6708.00
2022-11-15T10:40:26.662Z,6696.00
2022-11-15T10:41:26.760Z,6664.00
2022-11-15T10:42:26.811Z,6524.00
2022-11-15T10:43:26.877Z,6356.00
2022-11-15T10:44:26.956Z,6352.00
2022-11-15T10:45:27.055Z,6504.00
2022-11-15T10:47:27.235Z,6508.00
2022-11-15T10:48:27.322Z,6920.00
2022-11-15T10:49:27.409Z,7008.00
2022-11-15T10:50:27.477Z,7116.00
2022-11-15T10:51:27.566Z,7028.00
2022-11-15T10:52:27.602Z,6764.00
2022-11-15T10:53:27.717Z,6632.00
2022-11-15T10:54:27.791Z,6512.00
2022-11-15T10:55:27.881Z,6460.00
2022-11-15T10:56:28.073Z,6444.00
2022-11-15T10:57:28.065Z,6428.00
2022-11-15T10:58:28.147Z,6364.00
2022-11-15T10:59:28.226Z,6332.00
2022-11-15T11:00:28.302Z,6280.00
2022-11-15T11:01:28.490Z,6208.00
2022-11-15T11:02:28.497Z,6132.00
2022-11-15T11:03:28.579Z,6076.00
2022-11-15T11:04:28.653Z,6076.00
2022-11-15T11:05:28.752Z,6160.00
2022-11-15T11:06:28.857Z,6228.00
2022-11-15T11:07:28.981Z,6208.00
2022-11-15T11:08:29.213Z,6192.00
2022-11-15T11:09:29.069Z,6244.00
2022-11-15T11:10:50.502Z,6400.00
2022-11-15T11:11:29.609Z,6592.00
2022-11-15T11:12:29.270Z,6708.00
2022-11-15T11:13:29.347Z,6716.00
2022-11-15T11:14:29.422Z,6760.00
2022-11-15T11:15:29.499Z,6840.00
2022-11-15T11:16:29.603Z,6952.00
2022-11-15T11:17:29.680Z,6996.00
2022-11-15T11:18:30.176Z,7076.00
2022-11-15T11:19:29.826Z,7248.00
2022-11-15T11:20:29.905Z,7528.00
2022-11-15T11:21:34.182Z,7872.00
2022-11-15T11:22:30.063Z,8172.00
2022-11-15T11:23:30.493Z,8476.00
2022-11-15T11:24:30.205Z,8800.00
2022-11-15T11:25:30.324Z,9116.00
2022-11-15T11:26:30.417Z,9184.00
2022-11-15T11:27:30.468Z,9012.00
2022-11-15T11:28:30.820Z,8520.00
2022-11-15T11:29:30.602Z,7880.00
2022-11-15T11:30:30.655Z,7312.00
2022-11-15T11:31:30.743Z,6832.00
2022-11-15T11:32:30.792Z,6508.00
2022-11-15T11:33:30.876Z,6284.00
2022-11-15T11:34:30.920Z,6116.00
2022-11-15T11:35:31.004Z,5988.00
2022-11-15T11:36:31.101Z,5900.00
2022-11-15T11:37:31.159Z,5916.00
2022-11-15T11:38:31.534Z,5960.00
2022-11-15T11:39:31.336Z,6072.00
2022-11-15T11:40:31.402Z,6216.00
2022-11-15T11:41:31.525Z,6272.00
2022-11-15T11:42:31.567Z,6304.00
2022-11-15T11:43:31.655Z,6332.00
2022-11-15T11:44:31.735Z,6332.00
2022-11-15T11:45:31.808Z,6388.00
2022-11-15T11:46:31.907Z,6532.00
2022-11-15T11:47:31.975Z,6640.00
2022-11-15T11:48:32.357Z,6748.00
2022-11-15T11:49:32.137Z,6844.00
2022-11-15T11:50:32.216Z,6912.00
2022-11-15T11:51:32.664Z,6876.00
2022-11-15T11:52:32.368Z,6804.00
2022-11-15T11:53:32.448Z,6816.00
2022-11-15T11:54:32.522Z,6908.00
2022-11-15T11:55:32.593Z,6980.00
2022-11-15T11:56:32.684Z,6968.00
2022-11-15T11:57:32.734Z,6888.00
2022-11-15T11:58:33.061Z,6772.00
2022-11-15T11:59:32.904Z,6664.00
2022-11-15T12:00:32.972Z,6576.00
2022-11-15T12:01:33.148Z,6512.00
2022-11-15T12:02:33.262Z,6440.00
2022-11-15T12:03:33.215Z,6388.00
2022-11-15T12:04:33.294Z,6372.00
2022-11-15T12:05:33.365Z,6336.00
2022-11-15T12:06:33.459Z,6268.00
2022-11-15T12:07:33.593Z,6104.00
2022-11-15T12:08:34.120Z,5988.00
2022-11-15T12:09:33.689Z,5976.00
2022-11-15T12:10:33.767Z,6044.00
2022-11-15T12:11:33.855Z,6136.00
2022-11-15T12:12:33.900Z,6212.00
2022-11-15T12:13:33.974Z,6300.00
2022-11-15T12:14:34.055Z,6372.00
2022-11-15T12:15:34.135Z,6388.00
2022-11-15T12:16:34.226Z,6420.00
2022-11-15T12:17:34.291Z,6476.00
2022-11-15T12:18:34.670Z,6548.00
2022-11-15T12:19:34.450Z,6580.00
2022-11-15T12:20:34.530Z,6644.00
2022-11-15T12:21:34.614Z,6724.00
2022-11-15T12:22:34.660Z,6788.00
2022-11-15T12:23:34.733Z,6760.00
2022-11-15T12:24:34.808Z,6656.00
2022-11-15T12:25:34.896Z,6616.00
2022-11-15T12:26:34.991Z,6580.00
2022-11-15T12:27:35.055Z,6496.00
2022-11-15T12:28:35.383Z,6372.00
2022-11-15T12:29:35.216Z,6296.00
2022-11-15T12:30:35.297Z,6212.00
2022-11-15T12:31:35.435Z,6052.00
2022-11-15T12:32:35.484Z,5900.00
2022-11-15T12:33:35.560Z,5872.00
2022-11-15T12:34:35.634Z,5936.00
2022-11-15T12:35:35.721Z,5856.00
2022-11-15T12:36:35.780Z,5728.00
2022-11-15T12:37:35.848Z,5600.00
2022-11-15T12:38:35.907Z,5476.00
2022-11-15T12:39:35.981Z,5384.00
2022-11-15T12:40:36.070Z,5364.00